sensor_id;sensor_type;location;lat;lon;timestamp;P1;durP1;ratioP1;P2;durP2;ratioP2
64936;SDS011;51452;47.698;19.050;2023-11-21T00:02:11;6.28;;;1.70;;
64936;SDS011;51452;47.698;19.050;2023-11-21T00:04:36;3.10;;;1.25;;
64936;SDS011;51452;47.698;19.050;2023-11-21T00:07:02;4.47;;;1.67;;
64936;SDS011;51452;47.698;19.050;2023-11-21T00:09:28;4.70;;;1.52;;
64936;SDS011;51452;47.698;19.050;2023-11-21T00:11:53;4.35;;;1.38;;
64936;SDS011;51452;47.698;19.050;2023-11-21T00:14:19;5.55;;;1.55;;
64936;SDS011;51452;47.698;19.050;2023-11-21T00:16:44;5.45;;;1.85;;
64936;SDS011;51452;47.698;19.050;2023-11-21T00:19:10;4.72;;;1.80;;
64936;SDS011;51452;47.698;19.050;2023-11-21T00:21:37;4.03;;;1.75;;
64936;SDS011;51452;47.698;19.050;2023-11-21T00:24:02;5.20;;;2.20;;
64936;SDS011;51452;47.698;19.050;2023-11-21T00:26:28;7.50;;;1.98;;
64936;SDS011;51452;47.698;19.050;2023-11-21T00:28:53;6.05;;;2.13;;
64936;SDS011;51452;47.698;19.050;2023-11-21T00:31:19;4.53;;;1.88;;
64936;SDS011;51452;47.698;19.050;2023-11-21T00:33:45;6.07;;;1.95;;
64936;SDS011;51452;47.698;19.050;2023-11-21T00:36:13;6.03;;;2.35;;
64936;SDS011;51452;47.698;19.050;2023-11-21T00:38:39;6.20;;;2.25;;
64936;SDS011;51452;47.698;19.050;2023-11-21T00:41:05;4.95;;;2.10;;
64936;SDS011;51452;47.698;19.050;2023-11-21T00:43:31;8.25;;;2.10;;
64936;SDS011;51452;47.698;19.050;2023-11-21T00:45:58;4.75;;;2.03;;
64936;SDS011;51452;47.698;19.050;2023-11-21T00:48:24;4.03;;;1.90;;
64936;SDS011;51452;47.698;19.050;2023-11-21T00:50:49;5.05;;;2.00;;
64936;SDS011;51452;47.698;19.050;2023-11-21T00:53:15;4.20;;;1.92;;
64936;SDS011;51452;47.698;19.050;2023-11-21T00:55:41;5.63;;;1.80;;
64936;SDS011;51452;47.698;19.050;2023-11-21T00:58:09;6.25;;;2.10;;
64936;SDS011;51452;47.698;19.050;2023-11-21T01:00:37;5.55;;;1.98;;
64936;SDS011;51452;47.698;19.050;2023-11-21T01:03:12;4.30;;;1.80;;
64936;SDS011;51452;47.698;19.050;2023-11-21T01:05:43;4.80;;;1.65;;
64936;SDS011;51452;47.698;19.050;2023-11-21T01:08:09;6.25;;;1.63;;
64936;SDS011;51452;47.698;19.050;2023-11-21T01:10:38;4.13;;;1.60;;
64936;SDS011;51452;47.698;19.050;2023-11-21T01:13:06;6.40;;;1.85;;
64936;SDS011;51452;47.698;19.050;2023-11-21T01:15:35;3.33;;;1.60;;
64936;SDS011;51452;47.698;19.050;2023-11-21T01:18:01;5.03;;;1.48;;
64936;SDS011;51452;47.698;19.050;2023-11-21T01:20:29;5.63;;;1.73;;
64936;SDS011;51452;47.698;19.050;2023-11-21T01:22:54;5.55;;;1.48;;
64936;SDS011;51452;47.698;19.050;2023-11-21T01:25:20;3.50;;;1.50;;
64936;SDS011;51452;47.698;19.050;2023-11-21T01:27:46;6.03;;;1.90;;
64936;SDS011;51452;47.698;19.050;2023-11-21T01:30:11;5.47;;;2.03;;
64936;SDS011;51452;47.698;19.050;2023-11-21T01:32:37;4.40;;;2.10;;
64936;SDS011;51452;47.698;19.050;2023-11-21T01:35:06;5.78;;;2.03;;
64936;SDS011;51452;47.698;19.050;2023-11-21T01:37:32;4.07;;;1.98;;
64936;SDS011;51452;47.698;19.050;2023-11-21T01:40:01;7.15;;;2.25;;
64936;SDS011;51452;47.698;19.050;2023-11-21T01:42:30;6.53;;;2.50;;
64936;SDS011;51452;47.698;19.050;2023-11-21T01:44:58;7.85;;;2.35;;
64936;SDS011;51452;47.698;19.050;2023-11-21T01:47:26;6.53;;;2.28;;
64936;SDS011;51452;47.698;19.050;2023-11-21T01:49:55;7.63;;;2.53;;
64936;SDS011;51452;47.698;19.050;2023-11-21T01:52:23;7.40;;;2.40;;
64936;SDS011;51452;47.698;19.050;2023-11-21T01:54:52;7.93;;;2.30;;
64936;SDS011;51452;47.698;19.050;2023-11-21T01:57:19;5.40;;;2.50;;
64936;SDS011;51452;47.698;19.050;2023-11-21T01:59:45;4.97;;;1.85;;
64936;SDS011;51452;47.698;19.050;2023-11-21T02:02:14;6.30;;;2.33;;
64936;SDS011;51452;47.698;19.050;2023-11-21T02:04:40;7.93;;;2.42;;
64936;SDS011;51452;47.698;19.050;2023-11-21T02:07:09;9.32;;;2.42;;
64936;SDS011;51452;47.698;19.050;2023-11-21T02:09:35;4.22;;;2.20;;
64936;SDS011;51452;47.698;19.050;2023-11-21T02:12:03;5.28;;;2.05;;
64936;SDS011;51452;47.698;19.050;2023-11-21T02:14:34;4.50;;;2.08;;
64936;SDS011;51452;47.698;19.050;2023-11-21T02:16:59;4.40;;;2.28;;
64936;SDS011;51452;47.698;19.050;2023-11-21T02:19:28;4.70;;;2.03;;
64936;SDS011;51452;47.698;19.050;2023-11-21T02:21:57;8.30;;;2.53;;
64936;SDS011;51452;47.698;19.050;2023-11-21T02:24:28;5.80;;;2.15;;
64936;SDS011;51452;47.698;19.050;2023-11-21T02:26:53;5.13;;;2.00;;
64936;SDS011;51452;47.698;19.050;2023-11-21T02:29:20;9.20;;;2.40;;
64936;SDS011;51452;47.698;19.050;2023-11-21T02:32:04;5.63;;;2.00;;
64936;SDS011;51452;47.698;19.050;2023-11-21T02:34:30;7.10;;;2.50;;
64936;SDS011;51452;47.698;19.050;2023-11-21T02:36:59;7.47;;;2.53;;
64936;SDS011;51452;47.698;19.050;2023-11-21T02:39:24;9.63;;;2.35;;
64936;SDS011;51452;47.698;19.050;2023-11-21T02:41:50;6.60;;;2.20;;
64936;SDS011;51452;47.698;19.050;2023-11-21T02:44:16;4.13;;;1.83;;
64936;SDS011;51452;47.698;19.050;2023-11-21T02:46:41;5.93;;;2.17;;
64936;SDS011;51452;47.698;19.050;2023-11-21T02:49:09;5.43;;;1.85;;
64936;SDS011;51452;47.698;19.050;2023-11-21T02:51:35;8.10;;;2.20;;
64936;SDS011;51452;47.698;19.050;2023-11-21T02:54:03;4.57;;;2.05;;
64936;SDS011;51452;47.698;19.050;2023-11-21T02:56:31;5.57;;;2.00;;
64936;SDS011;51452;47.698;19.050;2023-11-21T02:58:58;6.78;;;2.15;;
64936;SDS011;51452;47.698;19.050;2023-11-21T03:01:25;6.00;;;2.15;;
64936;SDS011;51452;47.698;19.050;2023-11-21T03:03:50;4.32;;;2.28;;
64936;SDS011;51452;47.698;19.050;2023-11-21T03:06:17;5.38;;;2.05;;
64936;SDS011;51452;47.698;19.050;2023-11-21T03:08:45;6.18;;;2.33;;
64936;SDS011;51452;47.698;19.050;2023-11-21T03:11:14;5.63;;;2.10;;
64936;SDS011;51452;47.698;19.050;2023-11-21T03:13:40;5.38;;;1.88;;
64936;SDS011;51452;47.698;19.050;2023-11-21T03:16:09;7.90;;;2.20;;
64936;SDS011;51452;47.698;19.050;2023-11-21T03:18:39;7.63;;;2.35;;
64936;SDS011;51452;47.698;19.050;2023-11-21T03:21:05;5.88;;;2.05;;
64936;SDS011;51452;47.698;19.050;2023-11-21T03:23:33;3.80;;;2.08;;
64936;SDS011;51452;47.698;19.050;2023-11-21T03:25:59;8.32;;;2.38;;
64936;SDS011;51452;47.698;19.050;2023-11-21T03:28:25;7.80;;;2.20;;
64936;SDS011;51452;47.698;19.050;2023-11-21T03:30:52;6.40;;;2.03;;
64936;SDS011;51452;47.698;19.050;2023-11-21T03:33:17;6.43;;;1.98;;
64936;SDS011;51452;47.698;19.050;2023-11-21T03:35:46;4.03;;;2.00;;
64936;SDS011;51452;47.698;19.050;2023-11-21T03:38:11;9.23;;;2.10;;
64936;SDS011;51452;47.698;19.050;2023-11-21T03:40:37;7.00;;;2.28;;
64936;SDS011;51452;47.698;19.050;2023-11-21T03:43:04;7.13;;;2.03;;
64936;SDS011;51452;47.698;19.050;2023-11-21T03:45:31;4.45;;;2.05;;
64936;SDS011;51452;47.698;19.050;2023-11-21T03:48:00;3.88;;;1.92;;
64936;SDS011;51452;47.698;19.050;2023-11-21T03:50:27;5.45;;;2.08;;
64936;SDS011;51452;47.698;19.050;2023-11-21T03:52:53;5.53;;;2.08;;
64936;SDS011;51452;47.698;19.050;2023-11-21T03:55:19;4.85;;;1.73;;
64936;SDS011;51452;47.698;19.050;2023-11-21T03:57:44;5.20;;;1.83;;
64936;SDS011;51452;47.698;19.050;2023-11-21T04:00:12;6.18;;;2.30;;
64936;SDS011;51452;47.698;19.050;2023-11-21T04:02:38;4.57;;;1.83;;
64936;SDS011;51452;47.698;19.050;2023-11-21T04:05:06;9.93;;;2.70;;
64936;SDS011;51452;47.698;19.050;2023-11-21T04:07:32;3.83;;;1.52;;
64936;SDS011;51452;47.698;19.050;2023-11-21T04:09:58;4.95;;;1.70;;
64936;SDS011;51452;47.698;19.050;2023-11-21T04:12:24;4.18;;;1.77;;
64936;SDS011;51452;47.698;19.050;2023-11-21T04:14:49;9.77;;;2.38;;
64936;SDS011;51452;47.698;19.050;2023-11-21T04:17:17;6.50;;;2.15;;
64936;SDS011;51452;47.698;19.050;2023-11-21T04:19:44;6.90;;;2.15;;
64936;SDS011;51452;47.698;19.050;2023-11-21T04:22:12;5.40;;;1.77;;
64936;SDS011;51452;47.698;19.050;2023-11-21T04:24:37;5.78;;;2.13;;
64936;SDS011;51452;47.698;19.050;2023-11-21T04:27:03;5.47;;;2.00;;
64936;SDS011;51452;47.698;19.050;2023-11-21T04:29:29;5.35;;;1.98;;
64936;SDS011;51452;47.698;19.050;2023-11-21T04:31:55;6.97;;;2.17;;
64936;SDS011;51452;47.698;19.050;2023-11-21T04:34:20;4.80;;;2.15;;
64936;SDS011;51452;47.698;19.050;2023-11-21T04:36:46;6.90;;;2.28;;
64936;SDS011;51452;47.698;19.050;2023-11-21T04:39:11;6.75;;;2.40;;
64936;SDS011;51452;47.698;19.050;2023-11-21T04:41:39;7.32;;;2.13;;
64936;SDS011;51452;47.698;19.050;2023-11-21T04:44:05;7.05;;;2.10;;
64936;SDS011;51452;47.698;19.050;2023-11-21T04:46:31;5.00;;;2.33;;
64936;SDS011;51452;47.698;19.050;2023-11-21T04:48:57;4.28;;;1.77;;
64936;SDS011;51452;47.698;19.050;2023-11-21T04:51:23;4.80;;;2.10;;
64936;SDS011;51452;47.698;19.050;2023-11-21T04:53:48;5.25;;;2.35;;
64936;SDS011;51452;47.698;19.050;2023-11-21T04:56:17;5.60;;;2.03;;
64936;SDS011;51452;47.698;19.050;2023-11-21T04:58:42;3.58;;;1.83;;
64936;SDS011;51452;47.698;19.050;2023-11-21T05:01:08;5.32;;;1.65;;
64936;SDS011;51452;47.698;19.050;2023-11-21T05:03:36;5.22;;;1.52;;
64936;SDS011;51452;47.698;19.050;2023-11-21T05:06:04;5.03;;;1.80;;
64936;SDS011;51452;47.698;19.050;2023-11-21T05:08:30;2.92;;;1.73;;
64936;SDS011;51452;47.698;19.050;2023-11-21T05:10:56;5.07;;;2.00;;
64936;SDS011;51452;47.698;19.050;2023-11-21T05:13:24;4.43;;;1.60;;
64936;SDS011;51452;47.698;19.050;2023-11-21T05:15:53;7.20;;;2.28;;
64936;SDS011;51452;47.698;19.050;2023-11-21T05:18:19;7.03;;;1.67;;
64936;SDS011;51452;47.698;19.050;2023-11-21T05:20:45;5.95;;;1.40;;
64936;SDS011;51452;47.698;19.050;2023-11-21T05:23:12;5.10;;;1.50;;
64936;SDS011;51452;47.698;19.050;2023-11-21T05:25:37;3.20;;;1.60;;
64936;SDS011;51452;47.698;19.050;2023-11-21T05:28:03;3.95;;;1.50;;
64936;SDS011;51452;47.698;19.050;2023-11-21T05:30:29;5.28;;;1.67;;
64936;SDS011;51452;47.698;19.050;2023-11-21T05:32:57;8.75;;;1.98;;
64936;SDS011;51452;47.698;19.050;2023-11-21T05:35:23;2.60;;;1.38;;
64936;SDS011;51452;47.698;19.050;2023-11-21T05:37:48;3.92;;;1.70;;
64936;SDS011;51452;47.698;19.050;2023-11-21T05:40:14;6.50;;;1.50;;
64936;SDS011;51452;47.698;19.050;2023-11-21T05:42:43;3.55;;;1.60;;
64936;SDS011;51452;47.698;19.050;2023-11-21T05:45:09;3.30;;;1.63;;
64936;SDS011;51452;47.698;19.050;2023-11-21T05:47:36;3.13;;;1.65;;
64936;SDS011;51452;47.698;19.050;2023-11-21T05:50:02;4.85;;;1.92;;
64936;SDS011;51452;47.698;19.050;2023-11-21T05:52:30;8.95;;;1.92;;
64936;SDS011;51452;47.698;19.050;2023-11-21T05:54:57;3.92;;;1.92;;
64936;SDS011;51452;47.698;19.050;2023-11-21T05:57:23;5.57;;;2.15;;
64936;SDS011;51452;47.698;19.050;2023-11-21T05:59:48;5.20;;;1.60;;
64936;SDS011;51452;47.698;19.050;2023-11-21T06:02:14;3.97;;;1.73;;
64936;SDS011;51452;47.698;19.050;2023-11-21T06:04:39;5.17;;;1.70;;
64936;SDS011;51452;47.698;19.050;2023-11-21T06:07:07;4.03;;;1.88;;
64936;SDS011;51452;47.698;19.050;2023-11-21T06:09:33;5.20;;;1.58;;
64936;SDS011;51452;47.698;19.050;2023-11-21T06:11:59;3.75;;;1.52;;
64936;SDS011;51452;47.698;19.050;2023-11-21T06:14:25;4.00;;;1.70;;
64936;SDS011;51452;47.698;19.050;2023-11-21T06:16:50;4.88;;;1.65;;
64936;SDS011;51452;47.698;19.050;2023-11-21T06:19:17;3.90;;;1.48;;
64936;SDS011;51452;47.698;19.050;2023-11-21T06:21:45;4.32;;;1.60;;
64936;SDS011;51452;47.698;19.050;2023-11-21T06:24:14;9.47;;;2.60;;
64936;SDS011;51452;47.698;19.050;2023-11-21T06:26:42;7.65;;;2.17;;
64936;SDS011;51452;47.698;19.050;2023-11-21T06:29:09;7.80;;;1.95;;
64936;SDS011;51452;47.698;19.050;2023-11-21T06:31:36;6.28;;;1.70;;
64936;SDS011;51452;47.698;19.050;2023-11-21T06:34:01;4.57;;;1.73;;
64936;SDS011;51452;47.698;19.050;2023-11-21T06:36:28;5.93;;;1.75;;
64936;SDS011;51452;47.698;19.050;2023-11-21T06:38:56;4.38;;;1.65;;
64936;SDS011;51452;47.698;19.050;2023-11-21T06:41:22;4.38;;;1.52;;
64936;SDS011;51452;47.698;19.050;2023-11-21T06:43:48;4.28;;;1.35;;
64936;SDS011;51452;47.698;19.050;2023-11-21T06:46:14;6.72;;;1.83;;
64936;SDS011;51452;47.698;19.050;2023-11-21T06:48:41;10.95;;;2.80;;
64936;SDS011;51452;47.698;19.050;2023-11-21T06:51:07;3.80;;;1.60;;
64936;SDS011;51452;47.698;19.050;2023-11-21T06:53:33;4.10;;;1.50;;
64936;SDS011;51452;47.698;19.050;2023-11-21T06:55:59;1.90;;;1.17;;
64936;SDS011;51452;47.698;19.050;2023-11-21T06:58:24;8.00;;;1.90;;
64936;SDS011;51452;47.698;19.050;2023-11-21T07:00:50;2.95;;;1.30;;
64936;SDS011;51452;47.698;19.050;2023-11-21T07:03:23;4.20;;;1.42;;
64936;SDS011;51452;47.698;19.050;2023-11-21T07:05:52;4.25;;;1.40;;
64936;SDS011;51452;47.698;19.050;2023-11-21T07:08:17;2.65;;;1.40;;
64936;SDS011;51452;47.698;19.050;2023-11-21T07:10:45;5.63;;;1.80;;
64936;SDS011;51452;47.698;19.050;2023-11-21T07:13:12;11.65;;;2.95;;
64936;SDS011;51452;47.698;19.050;2023-11-21T07:15:38;17.60;;;5.43;;
64936;SDS011;51452;47.698;19.050;2023-11-21T07:18:03;15.93;;;4.43;;
64936;SDS011;51452;47.698;19.050;2023-11-21T07:20:28;11.60;;;3.30;;
64936;SDS011;51452;47.698;19.050;2023-11-21T07:22:56;9.63;;;3.08;;
64936;SDS011;51452;47.698;19.050;2023-11-21T07:25:23;6.47;;;2.20;;
64936;SDS011;51452;47.698;19.050;2023-11-21T07:27:48;5.95;;;2.10;;
64936;SDS011;51452;47.698;19.050;2023-11-21T07:30:21;5.82;;;1.80;;
64936;SDS011;51452;47.698;19.050;2023-11-21T07:32:49;5.05;;;1.70;;
64936;SDS011;51452;47.698;19.050;2023-11-21T07:35:14;4.72;;;1.48;;
64936;SDS011;51452;47.698;19.050;2023-11-21T07:37:40;4.78;;;1.75;;
64936;SDS011;51452;47.698;19.050;2023-11-21T07:40:06;3.20;;;1.70;;
64936;SDS011;51452;47.698;19.050;2023-11-21T07:42:33;7.32;;;3.30;;
64936;SDS011;51452;47.698;19.050;2023-11-21T07:44:59;9.85;;;4.88;;
64936;SDS011;51452;47.698;19.050;2023-11-21T07:47:25;13.00;;;4.82;;
64936;SDS011;51452;47.698;19.050;2023-11-21T07:49:52;9.45;;;4.10;;
64936;SDS011;51452;47.698;19.050;2023-11-21T07:52:21;5.35;;;2.90;;
64936;SDS011;51452;47.698;19.050;2023-11-21T07:54:47;6.32;;;3.20;;
64936;SDS011;51452;47.698;19.050;2023-11-21T07:57:12;5.13;;;2.10;;
64936;SDS011;51452;47.698;19.050;2023-11-21T07:59:39;5.30;;;2.33;;
64936;SDS011;51452;47.698;19.050;2023-11-21T08:02:07;3.45;;;1.40;;
64936;SDS011;51452;47.698;19.050;2023-11-21T08:04:35;2.40;;;1.15;;
64936;SDS011;51452;47.698;19.050;2023-11-21T08:07:00;2.47;;;1.30;;
64936;SDS011;51452;47.698;19.050;2023-11-21T08:09:27;5.80;;;1.73;;
64936;SDS011;51452;47.698;19.050;2023-11-21T08:11:58;3.78;;;1.10;;
64936;SDS011;51452;47.698;19.050;2023-11-21T08:14:27;4.88;;;1.20;;
64936;SDS011;51452;47.698;19.050;2023-11-21T08:16:53;6.55;;;1.85;;
64936;SDS011;51452;47.698;19.050;2023-11-21T08:19:22;7.90;;;1.48;;
64936;SDS011;51452;47.698;19.050;2023-11-21T08:21:52;3.45;;;1.38;;
64936;SDS011;51452;47.698;19.050;2023-11-21T08:24:26;3.10;;;1.20;;
64936;SDS011;51452;47.698;19.050;2023-11-21T08:26:52;5.25;;;1.27;;
64936;SDS011;51452;47.698;19.050;2023-11-21T08:29:20;2.10;;;1.10;;
64936;SDS011;51452;47.698;19.050;2023-11-21T08:31:46;2.63;;;1.20;;
64936;SDS011;51452;47.698;19.050;2023-11-21T08:34:17;4.05;;;1.52;;
64936;SDS011;51452;47.698;19.050;2023-11-21T08:36:43;3.88;;;1.75;;
64936;SDS011;51452;47.698;19.050;2023-11-21T08:39:09;6.13;;;1.52;;
64936;SDS011;51452;47.698;19.050;2023-11-21T08:41:38;4.43;;;1.67;;
64936;SDS011;51452;47.698;19.050;2023-11-21T08:44:04;3.53;;;1.70;;
64936;SDS011;51452;47.698;19.050;2023-11-21T08:46:32;3.78;;;1.55;;
64936;SDS011;51452;47.698;19.050;2023-11-21T08:49:00;4.85;;;1.20;;
64936;SDS011;51452;47.698;19.050;2023-11-21T08:51:26;3.30;;;1.83;;
64936;SDS011;51452;47.698;19.050;2023-11-21T08:53:54;3.15;;;0.95;;
64936;SDS011;51452;47.698;19.050;2023-11-21T08:56:20;5.45;;;1.75;;
64936;SDS011;51452;47.698;19.050;2023-11-21T08:58:45;4.80;;;1.25;;
64936;SDS011;51452;47.698;19.050;2023-11-21T09:01:12;2.53;;;1.00;;
64936;SDS011;51452;47.698;19.050;2023-11-21T09:03:38;3.58;;;1.30;;
64936;SDS011;51452;47.698;19.050;2023-11-21T09:06:03;5.22;;;1.73;;
64936;SDS011;51452;47.698;19.050;2023-11-21T09:08:29;3.08;;;1.38;;
64936;SDS011;51452;47.698;19.050;2023-11-21T09:11:02;3.65;;;1.50;;
64936;SDS011;51452;47.698;19.050;2023-11-21T09:13:30;2.85;;;1.30;;
64936;SDS011;51452;47.698;19.050;2023-11-21T09:15:56;5.25;;;1.60;;
64936;SDS011;51452;47.698;19.050;2023-11-21T09:18:21;4.45;;;1.45;;
64936;SDS011;51452;47.698;19.050;2023-11-21T09:20:52;10.55;;;3.10;;
64936;SDS011;51452;47.698;19.050;2023-11-21T09:23:27;9.52;;;4.40;;
64936;SDS011;51452;47.698;19.050;2023-11-21T09:25:55;12.98;;;5.40;;
64936;SDS011;51452;47.698;19.050;2023-11-21T09:28:22;8.73;;;4.30;;
64936;SDS011;51452;47.698;19.050;2023-11-21T09:30:52;9.50;;;4.43;;
64936;SDS011;51452;47.698;19.050;2023-11-21T09:33:20;9.40;;;4.13;;
64936;SDS011;51452;47.698;19.050;2023-11-21T09:35:51;8.95;;;4.05;;
64936;SDS011;51452;47.698;19.050;2023-11-21T09:38:21;9.07;;;4.55;;
64936;SDS011;51452;47.698;19.050;2023-11-21T09:43:20;9.52;;;3.65;;
64936;SDS011;51452;47.698;19.050;2023-11-21T09:45:47;7.13;;;3.75;;
64936;SDS011;51452;47.698;19.050;2023-11-21T09:48:18;10.30;;;3.90;;
64936;SDS011;51452;47.698;19.050;2023-11-21T09:50:48;10.68;;;3.60;;
64936;SDS011;51452;47.698;19.050;2023-11-21T09:55:46;10.73;;;4.72;;
64936;SDS011;51452;47.698;19.050;2023-11-21T09:58:16;9.95;;;4.57;;
64936;SDS011;51452;47.698;19.050;2023-11-21T10:00:46;9.82;;;4.63;;
64936;SDS011;51452;47.698;19.050;2023-11-21T10:03:20;11.32;;;5.22;;
64936;SDS011;51452;47.698;19.050;2023-11-21T10:05:48;8.68;;;4.30;;
64936;SDS011;51452;47.698;19.050;2023-11-21T10:08:15;11.60;;;5.57;;
64936;SDS011;51452;47.698;19.050;2023-11-21T10:10:47;9.68;;;4.15;;
64936;SDS011;51452;47.698;19.050;2023-11-21T10:13:21;9.30;;;4.25;;
64936;SDS011;51452;47.698;19.050;2023-11-21T10:15:50;8.52;;;4.72;;
64936;SDS011;51452;47.698;19.050;2023-11-21T10:18:16;7.78;;;3.78;;
64936;SDS011;51452;47.698;19.050;2023-11-21T10:20:42;9.05;;;4.28;;
64936;SDS011;51452;47.698;19.050;2023-11-21T10:23:15;8.77;;;4.30;;
64936;SDS011;51452;47.698;19.050;2023-11-21T10:25:41;11.07;;;3.80;;
64936;SDS011;51452;47.698;19.050;2023-11-21T10:28:06;8.00;;;3.55;;
64936;SDS011;51452;47.698;19.050;2023-11-21T10:30:44;10.50;;;5.10;;
64936;SDS011;51452;47.698;19.050;2023-11-21T10:33:10;13.23;;;6.55;;
64936;SDS011;51452;47.698;19.050;2023-11-21T10:35:46;12.50;;;6.45;;
64936;SDS011;51452;47.698;19.050;2023-11-21T10:38:15;15.60;;;6.72;;
64936;SDS011;51452;47.698;19.050;2023-11-21T10:40:47;16.05;;;6.93;;
64936;SDS011;51452;47.698;19.050;2023-11-21T10:43:15;13.48;;;6.28;;
64936;SDS011;51452;47.698;19.050;2023-11-21T10:45:43;14.27;;;5.97;;
64936;SDS011;51452;47.698;19.050;2023-11-21T10:48:15;15.63;;;6.07;;
64936;SDS011;51452;47.698;19.050;2023-11-21T10:50:41;13.00;;;5.10;;
64936;SDS011;51452;47.698;19.050;2023-11-21T10:53:07;9.60;;;5.13;;
64936;SDS011;51452;47.698;19.050;2023-11-21T10:55:37;9.52;;;4.45;;
64936;SDS011;51452;47.698;19.050;2023-11-21T10:58:03;12.70;;;4.80;;
64936;SDS011;51452;47.698;19.050;2023-11-21T11:00:33;12.43;;;4.82;;
64936;SDS011;51452;47.698;19.050;2023-11-21T11:03:01;12.60;;;5.43;;
64936;SDS011;51452;47.698;19.050;2023-11-21T11:05:39;12.65;;;5.05;;
64936;SDS011;51452;47.698;19.050;2023-11-21T11:08:17;11.00;;;5.20;;
64936;SDS011;51452;47.698;19.050;2023-11-21T11:10:45;13.02;;;5.05;;
64936;SDS011;51452;47.698;19.050;2023-11-21T11:13:15;10.10;;;4.93;;
64936;SDS011;51452;47.698;19.050;2023-11-21T11:15:41;7.80;;;4.68;;
64936;SDS011;51452;47.698;19.050;2023-11-21T11:18:10;10.70;;;4.45;;
64936;SDS011;51452;47.698;19.050;2023-11-21T11:20:43;8.98;;;4.80;;
64936;SDS011;51452;47.698;19.050;2023-11-21T11:23:13;10.68;;;5.30;;
64936;SDS011;51452;47.698;19.050;2023-11-21T11:26:04;14.65;;;5.90;;
64936;SDS011;51452;47.698;19.050;2023-11-21T11:39:34;9.68;;;5.10;;
64936;SDS011;51452;47.698;19.050;2023-11-21T11:42:08;9.98;;;5.25;;
64936;SDS011;51452;47.698;19.050;2023-11-21T11:50:05;7.85;;;4.30;;
64936;SDS011;51452;47.698;19.050;2023-11-21T11:53:11;9.15;;;4.65;;
64936;SDS011;51452;47.698;19.050;2023-11-21T11:55:39;11.80;;;4.65;;
64936;SDS011;51452;47.698;19.050;2023-11-21T11:58:06;8.73;;;4.55;;
64936;SDS011;51452;47.698;19.050;2023-11-21T12:02:58;9.18;;;5.20;;
64936;SDS011;51452;47.698;19.050;2023-11-21T12:05:28;11.02;;;4.72;;
64936;SDS011;51452;47.698;19.050;2023-11-21T12:07:59;11.50;;;4.90;;
64936;SDS011;51452;47.698;19.050;2023-11-21T12:10:27;10.63;;;5.30;;
64936;SDS011;51452;47.698;19.050;2023-11-21T12:12:55;13.32;;;5.22;;
64936;SDS011;51452;47.698;19.050;2023-11-21T12:15:25;10.05;;;4.70;;
64936;SDS011;51452;47.698;19.050;2023-11-21T12:17:58;9.05;;;4.82;;
64936;SDS011;51452;47.698;19.050;2023-11-21T12:20:26;13.48;;;5.13;;
64936;SDS011;51452;47.698;19.050;2023-11-21T12:23:07;14.30;;;5.38;;
64936;SDS011;51452;47.698;19.050;2023-11-21T12:25:43;15.68;;;6.10;;
64936;SDS011;51452;47.698;19.050;2023-11-21T12:28:11;13.48;;;5.93;;
64936;SDS011;51452;47.698;19.050;2023-11-21T12:30:39;15.60;;;5.60;;
64936;SDS011;51452;47.698;19.050;2023-11-21T12:33:08;14.75;;;6.28;;
64936;SDS011;51452;47.698;19.050;2023-11-21T12:35:37;12.65;;;6.18;;
64936;SDS011;51452;47.698;19.050;2023-11-21T12:38:03;13.93;;;6.88;;
64936;SDS011;51452;47.698;19.050;2023-11-21T12:40:35;12.52;;;5.80;;
64936;SDS011;51452;47.698;19.050;2023-11-21T12:43:00;16.08;;;6.45;;
64936;SDS011;51452;47.698;19.050;2023-11-21T12:45:29;11.50;;;6.30;;
64936;SDS011;51452;47.698;19.050;2023-11-21T12:48:10;13.25;;;5.95;;
64936;SDS011;51452;47.698;19.050;2023-11-21T12:50:37;12.07;;;6.20;;
64936;SDS011;51452;47.698;19.050;2023-11-21T12:53:03;9.80;;;5.47;;
64936;SDS011;51452;47.698;19.050;2023-11-21T12:55:37;12.45;;;6.20;;
64936;SDS011;51452;47.698;19.050;2023-11-21T12:58:10;15.48;;;6.18;;
64936;SDS011;51452;47.698;19.050;2023-11-21T13:03:08;21.08;;;6.28;;
64936;SDS011;51452;47.698;19.050;2023-11-21T13:05:38;9.35;;;6.13;;
64936;SDS011;51452;47.698;19.050;2023-11-21T13:08:05;8.90;;;5.35;;
64936;SDS011;51452;47.698;19.050;2023-11-21T13:10:41;10.80;;;5.78;;
64936;SDS011;51452;47.698;19.050;2023-11-21T13:13:11;10.65;;;5.13;;
64936;SDS011;51452;47.698;19.050;2023-11-21T13:18:19;14.10;;;5.70;;
64936;SDS011;51452;47.698;19.050;2023-11-21T13:20:49;13.75;;;6.38;;
64936;SDS011;51452;47.698;19.050;2023-11-21T13:23:15;10.88;;;5.80;;
64936;SDS011;51452;47.698;19.050;2023-11-21T13:25:44;9.77;;;5.38;;
64936;SDS011;51452;47.698;19.050;2023-11-21T13:28:11;12.43;;;6.50;;
64936;SDS011;51452;47.698;19.050;2023-11-21T13:30:37;10.02;;;6.15;;
64936;SDS011;51452;47.698;19.050;2023-11-21T13:33:05;11.80;;;5.97;;
64936;SDS011;51452;47.698;19.050;2023-11-21T13:35:33;12.73;;;6.25;;
64936;SDS011;51452;47.698;19.050;2023-11-21T13:38:08;12.55;;;5.70;;
64936;SDS011;51452;47.698;19.050;2023-11-21T13:40:38;10.57;;;6.18;;
64936;SDS011;51452;47.698;19.050;2023-11-21T13:43:10;11.60;;;5.47;;
64936;SDS011;51452;47.698;19.050;2023-11-21T13:45:39;11.05;;;5.32;;
64936;SDS011;51452;47.698;19.050;2023-11-21T13:48:06;8.40;;;4.40;;
64936;SDS011;51452;47.698;19.050;2023-11-21T13:50:44;10.27;;;4.65;;
64936;SDS011;51452;47.698;19.050;2023-11-21T13:53:23;9.13;;;5.05;;
64936;SDS011;51452;47.698;19.050;2023-11-21T13:55:52;6.70;;;3.03;;
64936;SDS011;51452;47.698;19.050;2023-11-21T13:58:25;4.30;;;2.17;;
64936;SDS011;51452;47.698;19.050;2023-11-21T14:01:09;6.95;;;2.40;;
64936;SDS011;51452;47.698;19.050;2023-11-21T14:03:59;10.02;;;4.18;;
64936;SDS011;51452;47.698;19.050;2023-11-21T14:06:45;11.38;;;3.35;;
64936;SDS011;51452;47.698;19.050;2023-11-21T14:09:20;7.05;;;2.72;;
64936;SDS011;51452;47.698;19.050;2023-11-21T14:14:21;5.82;;;2.33;;
64936;SDS011;51452;47.698;19.050;2023-11-21T14:16:50;7.05;;;2.40;;
64936;SDS011;51452;47.698;19.050;2023-11-21T14:19:16;6.18;;;2.40;;
64936;SDS011;51452;47.698;19.050;2023-11-21T14:21:42;4.22;;;1.70;;
64936;SDS011;51452;47.698;19.050;2023-11-21T14:24:11;4.35;;;1.45;;
64936;SDS011;51452;47.698;19.050;2023-11-21T14:26:39;7.45;;;2.78;;
64936;SDS011;51452;47.698;19.050;2023-11-21T14:29:06;8.15;;;3.33;;
64936;SDS011;51452;47.698;19.050;2023-11-21T14:31:33;7.82;;;3.00;;
64936;SDS011;51452;47.698;19.050;2023-11-21T14:33:59;6.85;;;3.05;;
64936;SDS011;51452;47.698;19.050;2023-11-21T14:36:27;7.22;;;2.78;;
64936;SDS011;51452;47.698;19.050;2023-11-21T14:38:52;8.35;;;3.28;;
64936;SDS011;51452;47.698;19.050;2023-11-21T14:41:18;14.10;;;3.10;;
64936;SDS011;51452;47.698;19.050;2023-11-21T14:43:44;11.02;;;3.65;;
64936;SDS011;51452;47.698;19.050;2023-11-21T14:46:10;7.78;;;3.13;;
64936;SDS011;51452;47.698;19.050;2023-11-21T14:48:39;9.70;;;3.20;;
64936;SDS011;51452;47.698;19.050;2023-11-21T14:51:08;9.70;;;3.55;;
64936;SDS011;51452;47.698;19.050;2023-11-21T14:53:58;7.75;;;3.30;;
64936;SDS011;51452;47.698;19.050;2023-11-21T14:56:34;8.05;;;3.78;;
64936;SDS011;51452;47.698;19.050;2023-11-21T14:59:02;10.10;;;3.97;;
64936;SDS011;51452;47.698;19.050;2023-11-21T15:01:33;7.95;;;3.97;;
64936;SDS011;51452;47.698;19.050;2023-11-21T15:04:22;6.38;;;3.38;;
64936;SDS011;51452;47.698;19.050;2023-11-21T15:07:01;4.93;;;2.40;;
64936;SDS011;51452;47.698;19.050;2023-11-21T15:09:30;5.63;;;2.30;;